Time;durP1;ratioP1;P1;durP2;ratioP2;P2;SDS_P1;SDS_P2;PMS_P1;PMS_P2;Temp;Humidity;BMP_temperature;BMP_pressure;BME280_temperature;BME280_humidity;BME280_pressure;Samples;Min_cycle;Max_cycle;Signal;HPM_P1;HPM_P2
2023/05/05 00:02:01;;;;;;;9.27;5.07;;;14.00;56.40;;;;;;5033667;28;20060;-77
2023/05/05 00:04:27;;;;;;;8.98;5.20;;;14.00;56.40;;;;;;5034924;28;20045;-77
2023/05/05 00:06:53;;;;;;;7.68;5.10;;;14.00;56.30;;;;;;5033583;28;20136;-77
2023/05/05 00:09:19;;;;;;;9.07;5.05;;;13.90;56.60;;;;;;5016853;28;20405;-77
2023/05/05 00:11:44;;;;;;;9.18;5.13;;;14.00;56.70;;;;;;5033411;28;20080;-76
2023/05/05 00:14:10;;;;;;;9.98;4.53;;;13.90;56.80;;;;;;5000356;28;20034;-76
2023/05/05 00:16:36;;;;;;;8.93;5.55;;;13.90;56.90;;;;;;5034492;28;20045;-77
2023/05/05 00:19:02;;;;;;;7.00;4.95;;;13.90;56.70;;;;;;5017007;28;20172;-76
2023/05/05 00:21:27;;;;;;;7.57;5.18;;;13.90;56.90;;;;;;5033393;28;20076;-76
2023/05/05 00:23:53;;;;;;;10.05;5.30;;;13.90;56.90;;;;;;5033351;28;20077;-76
2023/05/05 00:26:20;;;;;;;9.38;6.13;;;13.90;57.00;;;;;;5033335;28;20051;-77
2023/05/05 00:28:47;;;;;;;7.30;4.80;;;13.90;57.10;;;;;;5033897;28;20052;-77
2023/05/05 00:31:15;;;;;;;9.43;5.32;;;13.80;57.10;;;;;;5033493;28;20529;-76
2023/05/05 00:33:41;;;;;;;8.80;5.10;;;13.80;57.20;;;;;;5033198;28;20485;-77
2023/05/05 00:36:07;;;;;;;13.02;5.90;;;13.80;57.20;;;;;;5016767;28;20038;-77
2023/05/05 00:38:33;;;;;;;9.65;5.22;;;13.80;57.30;;;;;;5032930;28;20184;-77
2023/05/05 00:40:59;;;;;;;8.57;4.95;;;13.80;57.30;;;;;;5033320;28;20073;-76
2023/05/05 00:43:24;;;;;;;11.55;5.70;;;13.80;57.50;;;;;;5032735;28;20075;-77
2023/05/05 00:46:02;;;;;;;10.45;5.75;;;13.80;57.60;;;;;;5032452;28;20037;-77
2023/05/05 00:48:29;;;;;;;9.40;5.38;;;13.80;57.60;;;;;;5032771;28;20045;-77
2023/05/05 00:50:55;;;;;;;7.15;5.18;;;13.80;57.60;;;;;;5016317;28;20042;-76
2023/05/05 00:53:22;;;;;;;9.02;5.63;;;13.70;57.80;;;;;;5033139;28;20041;-77
2023/05/05 00:55:48;;;;;;;10.43;6.10;;;13.70;57.90;;;;;;5032764;28;20045;-78
2023/05/05 00:58:14;;;;;;;7.90;5.20;;;13.70;58.00;;;;;;5032445;28;20053;-77
2023/05/05 01:00:39;;;;;;;9.88;5.75;;;13.70;58.20;;;;;;5032419;28;20048;-77
2023/05/05 01:03:05;;;;;;;8.88;5.60;;;13.70;58.20;;;;;;5032144;28;20084;-76
2023/05/05 01:05:50;;;;;;;8.27;5.30;;;13.70;58.10;;;;;;5032405;28;20092;-77
2023/05/05 01:08:33;;;;;;;9.00;6.40;;;13.70;58.10;;;;;;5034103;28;20472;-77
2023/05/05 01:11:10;;;;;;;8.95;5.97;;;13.70;58.10;;;;;;5035437;28;20092;-77
2023/05/05 01:13:59;;;;;;;8.15;5.50;;;13.70;58.20;;;;;;5035151;28;20052;-77
2023/05/05 01:16:28;;;;;;;8.15;5.65;;;13.70;58.20;;;;;;5035437;28;20052;-76
2023/05/05 01:19:25;;;;;;;8.23;5.93;;;13.70;58.30;;;;;;5035300;28;20072;-76
2023/05/05 01:21:57;;;;;;;10.48;6.55;;;13.70;58.60;;;;;;5036049;28;20128;-77
2023/05/05 01:24:37;;;;;;;11.00;5.68;;;13.70;58.50;;;;;;5036660;28;20495;-76
2023/05/05 01:27:26;;;;;;;10.52;5.50;;;13.70;58.60;;;;;;5036714;28;20051;-76
2023/05/05 01:30:19;;;;;;;12.63;5.93;;;13.70;58.90;;;;;;5036585;28;20091;-77
2023/05/05 01:32:54;;;;;;;12.25;6.55;;;13.70;58.80;;;;;;5035936;28;20337;-77
2023/05/05 01:35:28;;;;;;;9.70;6.22;;;13.70;58.80;;;;;;5036165;28;20094;-77
2023/05/05 01:38:14;;;;;;;12.85;5.75;;;13.70;58.80;;;;;;5035576;28;20484;-77
2023/05/05 01:40:45;;;;;;;7.85;5.97;;;13.70;59.10;;;;;;5035812;28;20049;-77
2023/05/05 01:43:13;;;;;;;8.77;5.97;;;13.70;58.90;;;;;;5019258;28;20052;-77
2023/05/05 01:45:41;;;;;;;8.27;5.95;;;13.60;58.80;;;;;;5019010;28;20071;-76
2023/05/05 01:48:10;;;;;;;6.75;5.18;;;13.60;58.80;;;;;;5034939;28;20045;-76
2023/05/05 01:50:37;;;;;;;7.45;5.53;;;13.60;58.80;;;;;;5034861;28;20132;-77
2023/05/05 01:53:05;;;;;;;10.10;5.70;;;13.60;58.90;;;;;;5035028;28;20084;-76
2023/05/05 01:55:32;;;;;;;11.38;6.93;;;13.60;58.90;;;;;;5034767;28;20114;-76
2023/05/05 01:57:59;;;;;;;7.88;5.97;;;13.60;59.00;;;;;;5034058;28;20052;-77
2023/05/05 02:00:26;;;;;;;8.85;5.97;;;13.60;59.20;;;;;;5018460;28;20119;-76
2023/05/05 02:02:55;;;;;;;9.85;6.18;;;13.60;59.30;;;;;;5034972;28;20075;-76
2023/05/05 02:05:28;;;;;;;9.43;5.85;;;13.60;59.40;;;;;;5034942;28;20072;-75
2023/05/05 02:07:57;;;;;;;8.32;5.85;;;13.60;59.50;;;;;;5034729;28;20538;-77
2023/05/05 02:10:23;;;;;;;11.43;6.00;;;13.60;59.60;;;;;;5034520;28;20655;-77
2023/05/05 02:12:51;;;;;;;9.90;5.97;;;13.50;59.70;;;;;;5052457;28;20045;-76
2023/05/05 02:15:17;;;;;;;8.02;6.45;;;13.50;59.70;;;;;;5018166;28;20090;-76
2023/05/05 02:17:45;;;;;;;12.65;6.72;;;13.50;59.80;;;;;;5034114;28;20131;-76
2023/05/05 02:20:12;;;;;;;8.23;6.10;;;13.50;59.90;;;;;;5017749;28;20053;-77
2023/05/05 02:22:39;;;;;;;9.68;6.45;;;13.50;60.00;;;;;;5052089;28;20090;-76
2023/05/05 02:25:06;;;;;;;8.77;5.90;;;13.50;60.20;;;;;;5017933;28;20040;-76
2023/05/05 02:27:34;;;;;;;8.32;6.90;;;13.50;60.20;;;;;;5017445;28;20048;-76
2023/05/05 02:30:05;;;;;;;8.88;6.47;;;13.50;60.70;;;;;;5034480;28;20406;-76
2023/05/05 02:32:34;;;;;;;6.20;5.57;;;13.50;60.20;;;;;;5034270;28;20083;-76
2023/05/05 02:35:08;;;;;;;7.38;6.22;;;13.50;60.00;;;;;;5034385;28;20052;-76
2023/05/05 02:37:35;;;;;;;8.23;6.33;;;13.50;60.00;;;;;;5034316;28;20048;-75
2023/05/05 02:40:04;;;;;;;8.73;6.10;;;13.50;60.10;;;;;;5034210;28;20492;-75
2023/05/05 02:42:37;;;;;;;10.23;5.88;;;13.50;60.20;;;;;;5018619;28;20049;-75
2023/05/05 02:45:16;;;;;;;10.35;5.75;;;13.50;60.20;;;;;;5035237;28;20037;-76
2023/05/05 02:47:42;;;;;;;11.07;6.80;;;13.50;60.20;;;;;;5044732;28;20079;-76
2023/05/05 02:50:08;;;;;;;10.55;6.43;;;13.40;60.40;;;;;;5029683;28;20040;-75
2023/05/05 02:52:35;;;;;;;8.32;6.35;;;13.40;60.60;;;;;;5021807;28;20400;-75
2023/05/05 02:55:01;;;;;;;10.35;5.80;;;13.40;60.60;;;;;;5034333;28;20045;-76
2023/05/05 02:57:43;;;;;;;10.10;6.88;;;13.40;60.50;;;;;;5033949;28;20080;-75
2023/05/05 03:00:25;;;;;;;7.97;6.30;;;13.40;60.70;;;;;;5034458;28;20333;-75
2023/05/05 03:03:12;;;;;;;9.80;6.63;;;13.40;60.90;;;;;;5033987;28;20045;-75
2023/05/05 03:06:09;;;;;;;9.07;5.75;;;13.40;60.90;;;;;;5033923;28;20080;-76
2023/05/05 03:08:53;;;;;;;8.43;4.85;;;13.50;60.90;;;;;;5012610;28;20057;-75
2023/05/05 03:11:31;;;;;;;9.10;6.03;;;13.40;60.40;;;;;;5038116;28;20053;-75
2023/05/05 03:14:08;;;;;;;11.23;6.70;;;13.40;61.00;;;;;;5037789;28;20067;-75
2023/05/05 03:16:36;;;;;;;11.02;7.60;;;13.50;61.70;;;;;;5038058;28;20044;-75
2023/05/05 03:19:04;;;;;;;8.20;6.72;;;13.50;62.60;;;;;;5037914;28;20416;-74
2023/05/05 03:21:31;;;;;;;9.02;6.43;;;13.50;63.00;;;;;;5038090;28;20188;-75
2023/05/05 03:23:57;;;;;;;12.25;6.10;;;13.50;62.90;;;;;;5037950;28;20397;-75
2023/05/05 03:26:23;;;;;;;8.43;5.82;;;13.50;63.50;;;;;;5055847;28;20041;-76
2023/05/05 03:28:49;;;;;;;6.18;4.90;;;13.50;64.90;;;;;;5037441;28;20044;-69
2023/05/05 03:31:16;;;;;;;8.38;5.53;;;13.50;64.40;;;;;;5037534;28;20428;-69
2023/05/05 03:33:42;;;;;;;11.88;8.57;;;13.60;64.80;;;;;;5037532;28;20400;-69
2023/05/05 03:36:07;;;;;;;15.13;8.68;;;13.60;66.80;;;;;;5020517;28;20132;-70
2023/05/05 03:38:33;;;;;;;8.90;7.22;;;13.60;68.10;;;;;;5037007;28;20399;-69
2023/05/05 03:41:02;;;;;;;10.98;7.25;;;13.60;68.60;;;;;;5037311;28;20047;-69
2023/05/05 03:43:28;;;;;;;11.00;8.00;;;13.60;68.30;;;;;;5020555;28;20044;-69
2023/05/05 03:45:54;;;;;;;13.40;8.32;;;13.60;68.80;;;;;;5020700;28;20040;-70
2023/05/05 03:48:20;;;;;;;13.00;8.55;;;13.50;69.10;;;;;;5036672;28;20455;-70
2023/05/05 03:50:45;;;;;;;7.32;6.20;;;13.40;69.40;;;;;;5020281;28;20124;-70
2023/05/05 03:53:11;;;;;;;8.38;6.53;;;13.40;69.60;;;;;;5036632;28;20140;-70
2023/05/05 03:55:37;;;;;;;8.98;7.80;;;13.40;69.10;;;;;;5036721;28;20048;-70
2023/05/05 03:58:02;;;;;;;9.55;8.52;;;13.30;69.20;;;;;;5036882;28;20044;-70
2023/05/05 04:00:28;;;;;;;10.20;9.18;;;13.30;70.20;;;;;;5037004;28;20373;-70
2023/05/05 04:02:54;;;;;;;13.13;10.00;;;13.30;70.90;;;;;;5036476;28;20496;-70
2023/05/05 04:05:21;;;;;;;11.77;9.20;;;13.30;71.80;;;;;;5036571;28;20447;-70
2023/05/05 04:07:47;;;;;;;10.75;9.45;;;13.20;72.30;;;;;;5036541;28;20098;-70
2023/05/05 04:10:13;;;;;;;12.07;9.43;;;13.10;72.10;;;;;;5036375;28;20140;-70
2023/05/05 04:12:39;;;;;;;11.95;8.90;;;13.00;72.00;;;;;;5036539;28;20048;-69
2023/05/05 04:15:05;;;;;;;13.77;9.65;;;13.00;72.00;;;;;;5036781;28;20056;-70
2023/05/05 04:17:31;;;;;;;9.45;8.48;;;12.90;71.80;;;;;;5019664;28;20489;-70
2023/05/05 04:19:57;;;;;;;8.68;6.60;;;12.90;71.50;;;;;;5036282;28;20048;-69
2023/05/05 04:22:22;;;;;;;7.47;6.78;;;12.90;71.00;;;;;;5035559;28;20129;-70
2023/05/05 04:24:48;;;;;;;8.32;6.18;;;12.90;70.60;;;;;;5036549;28;20045;-70
2023/05/05 04:27:14;;;;;;;10.77;7.78;;;12.90;70.20;;;;;;5035985;28;20128;-70
2023/05/05 04:29:40;;;;;;;10.50;8.45;;;12.90;70.40;;;;;;5003777;28;20132;-70
2023/05/05 04:32:05;;;;;;;10.57;8.95;;;12.90;71.00;;;;;;5035996;28;20057;-70
2023/05/05 04:34:31;;;;;;;12.65;9.52;;;12.90;71.70;;;;;;5035863;28;20041;-70
2023/05/05 04:36:57;;;;;;;13.18;10.10;;;13.00;72.10;;;;;;5037210;28;20044;-70
2023/05/05 04:39:23;;;;;;;9.50;7.40;;;12.90;72.40;;;;;;5037307;28;20484;-70
2023/05/05 04:41:48;;;;;;;9.65;8.18;;;12.90;72.30;;;;;;5037175;28;20041;-70
2023/05/05 04:44:14;;;;;;;9.13;6.68;;;12.90;72.10;;;;;;5020680;28;20080;-70
2023/05/05 04:46:40;;;;;;;7.32;6.18;;;12.90;71.50;;;;;;5037121;28;20045;-70
2023/05/05 04:49:06;;;;;;;8.32;6.30;;;12.90;70.90;;;;;;5004481;28;20396;-70
2023/05/05 04:51:32;;;;;;;7.22;6.30;;;12.90;70.50;;;;;;5037116;28;20045;-70
2023/05/05 04:53:57;;;;;;;13.32;10.52;;;12.90;70.30;;;;;;5036664;28;20484;-70
2023/05/05 04:56:23;;;;;;;9.25;8.35;;;13.00;71.50;;;;;;5020218;28;20041;-70
2023/05/05 04:58:49;;;;;;;9.45;6.68;;;13.00;72.30;;;;;;5036718;28;20045;-70
2023/05/05 05:01:15;;;;;;;8.80;7.70;;;13.00;72.20;;;;;;5036643;28;20037;-69
2023/05/05 05:03:41;;;;;;;8.55;7.65;;;13.00;71.90;;;;;;5037028;28;20040;-70
2023/05/05 05:06:07;;;;;;;9.43;8.45;;;13.00;71.80;;;;;;5036691;28;20388;-70
2023/05/05 05:08:32;;;;;;;9.93;8.23;;;13.00;71.80;;;;;;5036325;28;20049;-70
2023/05/05 05:10:59;;;;;;;13.10;9.30;;;13.10;72.30;;;;;;5036649;28;20045;-69
2023/05/05 05:13:24;;;;;;;10.80;9.18;;;13.10;73.00;;;;;;5020217;28;20037;-70
2023/05/05 05:15:50;;;;;;;11.48;10.38;;;13.10;73.70;;;;;;5036501;28;20418;-69
2023/05/05 05:18:16;;;;;;;11.48;10.05;;;13.20;74.50;;;;;;5036389;28;20472;-69
2023/05/05 05:20:42;;;;;;;11.90;10.57;;;13.30;75.20;;;;;;5036719;28;20049;-69
2023/05/05 05:23:08;;;;;;;13.82;10.65;;;13.40;75.50;;;;;;5036616;28;20404;-70
2023/05/05 05:25:33;;;;;;;14.05;10.68;;;13.50;74.80;;;;;;5036187;28;20052;-69
2023/05/05 05:27:59;;;;;;;13.95;10.32;;;13.50;74.50;;;;;;5036153;28;20048;-69
2023/05/05 05:30:25;;;;;;;12.00;9.10;;;13.60;74.00;;;;;;5019960;28;20037;-69
2023/05/05 05:32:51;;;;;;;10.98;9.57;;;13.60;73.40;;;;;;5035220;28;20128;-69
2023/05/05 05:35:16;;;;;;;13.05;9.50;;;13.70;73.20;;;;;;5036249;28;20076;-70
2023/05/05 05:37:42;;;;;;;12.40;9.90;;;13.70;73.20;;;;;;5036247;28;20481;-70
2023/05/05 05:40:08;;;;;;;13.18;9.90;;;13.80;73.00;;;;;;5019700;28;20457;-69
2023/05/05 05:42:34;;;;;;;13.35;9.68;;;13.80;73.30;;;;;;5019464;28;20151;-69
2023/05/05 05:45:00;;;;;;;11.75;8.95;;;13.90;73.80;;;;;;5036209;28;20044;-69
2023/05/05 05:47:26;;;;;;;9.77;8.77;;;13.90;73.90;;;;;;5035755;28;20048;-70
2023/05/05 05:49:52;;;;;;;13.65;10.18;;;13.90;73.50;;;;;;5036145;28;20142;-69
2023/05/05 05:52:18;;;;;;;14.02;10.35;;;13.90;73.30;;;;;;5035806;28;20500;-69
2023/05/05 05:54:43;;;;;;;12.43;9.82;;;14.00;73.30;;;;;;5019037;28;20044;-69
2023/05/05 05:57:09;;;;;;;14.23;10.75;;;14.00;73.60;;;;;;5019560;28;20052;-69
2023/05/05 05:59:35;;;;;;;11.77;9.48;;;14.10;73.80;;;;;;5035961;28;20052;-69
2023/05/05 06:02:00;;;;;;;12.52;9.60;;;14.20;74.10;;;;;;5053513;28;20033;-69
2023/05/05 06:04:26;;;;;;;12.43;9.30;;;14.40;73.90;;;;;;5035536;28;20049;-69
2023/05/05 06:06:52;;;;;;;11.20;9.70;;;14.60;74.10;;;;;;5035651;28;20081;-69
2023/05/05 06:09:17;;;;;;;13.48;9.75;;;15.00;73.20;;;;;;5035252;28;20053;-70
2023/05/05 06:11:43;;;;;;;12.98;10.05;;;15.40;73.60;;;;;;5035391;28;20037;-70
2023/05/05 06:14:09;;;;;;;11.85;9.50;;;15.70;72.10;;;;;;5035346;28;20102;-70
2023/05/05 06:16:35;;;;;;;12.25;10.65;;;16.00;70.50;;;;;;5035568;28;20119;-70
2023/05/05 06:19:00;;;;;;;11.80;9.68;;;16.30;69.60;;;;;;5053283;28;20091;-70
2023/05/05 06:21:26;;;;;;;10.07;9.07;;;16.60;69.70;;;;;;5035279;28;20115;-70
2023/05/05 06:23:52;;;;;;;10.13;8.82;;;16.80;68.30;;;;;;5018892;28;20041;-70
2023/05/05 06:26:18;;;;;;;9.52;8.52;;;17.10;67.10;;;;;;5035020;28;20045;-70
2023/05/05 06:28:43;;;;;;;15.07;8.88;;;17.40;66.50;;;;;;5019008;28;20064;-70
2023/05/05 06:31:11;;;;;;;11.60;9.02;;;17.90;65.90;;;;;;5035192;28;20442;-70
2023/05/05 06:33:38;;;;;;;10.80;9.07;;;18.20;64.90;;;;;;5035367;28;20492;-70
2023/05/05 06:36:04;;;;;;;14.40;9.40;;;18.50;63.30;;;;;;5052963;28;20037;-70
2023/05/05 06:38:30;;;;;;;12.63;9.75;;;18.70;62.80;;;;;;5018514;28;20056;-70
2023/05/05 06:40:57;;;;;;;10.88;8.85;;;19.00;61.80;;;;;;5035044;28;20049;-71
2023/05/05 06:43:23;;;;;;;10.27;8.93;;;19.20;61.10;;;;;;5035046;28;20477;-70
2023/05/05 06:45:48;;;;;;;9.57;8.57;;;19.50;59.90;;;;;;5034730;28;20045;-70
2023/05/05 06:48:14;;;;;;;13.43;9.45;;;19.70;59.10;;;;;;5035033;28;20079;-70
2023/05/05 06:50:40;;;;;;;10.25;9.13;;;19.90;58.80;;;;;;5035170;28;20036;-70
2023/05/05 06:53:06;;;;;;;10.75;8.52;;;20.20;58.00;;;;;;5034889;28;20048;-69
2023/05/05 06:55:32;;;;;;;10.77;9.68;;;20.60;58.00;;;;;;5034738;28;20443;-69
2023/05/05 06:57:58;;;;;;;9.00;7.75;;;20.90;57.60;;;;;;5018486;28;20131;-69
2023/05/05 07:00:23;;;;;;;10.40;8.38;;;21.10;56.10;;;;;;5018428;28;20142;-69
2023/05/05 07:02:49;;;;;;;10.65;8.60;;;21.50;54.90;;;;;;5034794;28;20098;-69
2023/05/05 07:05:15;;;;;;;10.60;7.93;;;21.80;54.60;;;;;;5018276;28;20040;-69
2023/05/05 07:07:54;;;;;;;10.13;8.60;;;22.10;53.30;;;;;;5034573;28;20045;-69
2023/05/05 07:10:21;;;;;;;10.65;8.25;;;22.30;54.10;;;;;;5034500;28;20045;-69
2023/05/05 07:12:47;;;;;;;10.50;8.32;;;22.60;53.60;;;;;;5034731;28;20048;-69
2023/05/05 07:15:13;;;;;;;11.43;9.25;;;23.00;51.90;;;;;;5034829;28;20047;-69
2023/05/05 07:17:39;;;;;;;9.25;8.25;;;23.30;51.70;;;;;;5034915;28;20408;-69
2023/05/05 07:20:06;;;;;;;10.25;8.10;;;23.50;51.80;;;;;;5018417;28;20048;-69
2023/05/05 07:22:32;;;;;;;10.43;8.55;;;23.80;50.90;;;;;;5034577;28;20057;-69
2023/05/05 07:24:58;;;;;;;10.43;8.25;;;24.00;50.00;;;;;;5034691;28;20048;-69
2023/05/05 07:27:24;;;;;;;10.13;8.05;;;24.10;49.20;;;;;;5017989;28;20491;-69
2023/05/05 07:29:50;;;;;;;9.27;7.80;;;24.20;49.40;;;;;;5018067;28;20096;-69
2023/05/05 07:32:15;;;;;;;10.60;9.27;;;24.40;48.30;;;;;;5018322;28;20110;-69
2023/05/05 07:34:41;;;;;;;9.48;8.57;;;24.50;48.80;;;;;;5034518;28;20045;-69
2023/05/05 07:37:07;;;;;;;8.73;7.68;;;24.60;48.40;;;;;;5034537;28;20041;-69
2023/05/05 07:39:33;;;;;;;11.45;8.05;;;24.80;47.60;;;;;;5034734;28;20124;-69
2023/05/05 07:41:59;;;;;;;11.98;9.30;;;24.90;47.80;;;;;;5034762;28;20041;-70
2023/05/05 07:44:24;;;;;;;13.00;9.88;;;25.10;47.90;;;;;;5034368;28;20487;-69
2023/05/05 07:46:50;;;;;;;11.50;8.65;;;25.20;46.90;;;;;;5034445;28;20041;-69
2023/05/05 07:49:16;;;;;;;10.20;9.18;;;25.10;45.80;;;;;;5034633;28;20044;-69
2023/05/05 07:51:42;;;;;;;10.50;9.40;;;25.00;46.30;;;;;;5034672;28;20040;-69
2023/05/05 07:54:08;;;;;;;11.20;9.10;;;25.00;46.90;;;;;;5034182;28;20095;-69
2023/05/05 07:56:33;;;;;;;12.90;9.63;;;25.00;46.50;;;;;;5035408;28;20045;-69
2023/05/05 07:58:59;;;;;;;11.57;10.05;;;25.10;47.60;;;;;;5038031;28;20041;-69
2023/05/05 08:01:25;;;;;;;11.75;10.15;;;25.20;47.10;;;;;;5021528;28;20040;-69
2023/05/05 08:03:50;;;;;;;13.20;11.02;;;25.30;46.60;;;;;;5038132;28;20236;-69
2023/05/05 08:06:20;;;;;;;13.00;10.73;;;25.50;46.70;;;;;;5037859;28;20048;-70
2023/05/05 08:08:47;;;;;;;12.88;10.65;;;25.50;46.80;;;;;;5037555;28;20057;-70
2023/05/05 08:11:16;;;;;;;12.85;10.95;;;25.60;46.40;;;;;;5037606;28;20045;-70
2023/05/05 08:13:43;;;;;;;13.32;10.25;;;25.60;46.70;;;;;;5021151;28;20127;-69
2023/05/05 08:16:08;;;;;;;11.93;9.80;;;25.50;46.30;;;;;;5037454;28;20076;-69
2023/05/05 08:18:36;;;;;;;13.65;11.75;;;25.50;46.30;;;;;;5037749;28;20081;-69
2023/05/05 08:21:07;;;;;;;17.67;11.65;;;25.40;46.50;;;;;;5037562;28;20044;-69
2023/05/05 08:23:36;;;;;;;14.38;11.82;;;25.30;46.50;;;;;;5037397;28;20044;-69
2023/05/05 08:26:08;;;;;;;13.27;11.88;;;25.20;47.10;;;;;;5037001;28;20102;-70
2023/05/05 08:28:35;;;;;;;14.43;12.25;;;25.20;47.40;;;;;;5037281;28;20447;-69
2023/05/05 08:31:05;;;;;;;13.93;11.65;;;25.20;47.60;;;;;;5037516;28;20049;-69
2023/05/05 08:33:31;;;;;;;15.32;11.98;;;25.20;47.80;;;;;;5037191;28;20098;-69
2023/05/05 08:35:57;;;;;;;13.75;11.35;;;25.20;48.10;;;;;;5037104;28;20041;-69
2023/05/05 08:38:23;;;;;;;13.00;11.30;;;25.30;47.80;;;;;;5037244;28;20045;-69
2023/05/05 08:40:50;;;;;;;12.93;10.27;;;25.30;47.50;;;;;;5037375;28;20052;-69
2023/05/05 08:43:19;;;;;;;13.50;11.45;;;25.30;47.50;;;;;;5037436;28;20049;-69
2023/05/05 08:45:45;;;;;;;12.07;9.32;;;25.30;48.10;;;;;;5036945;28;20048;-69
2023/05/05 08:48:12;;;;;;;8.48;5.63;;;25.30;47.90;;;;;;5037010;28;20051;-69
2023/05/05 08:50:38;;;;;;;8.07;5.88;;;25.40;47.20;;;;;;5037109;28;20041;-69
2023/05/05 08:53:14;;;;;;;8.63;6.57;;;25.40;46.90;;;;;;5054877;28;20053;-69
2023/05/05 08:55:54;;;;;;;9.35;7.13;;;25.50;46.40;;;;;;5036941;28;20037;-69
2023/05/05 08:58:23;;;;;;;9.73;7.53;;;25.60;47.00;;;;;;5036873;28;20055;-70
2023/05/05 09:00:50;;;;;;;10.18;7.70;;;25.80;47.40;;;;;;5036802;28;20049;-69
2023/05/05 09:03:16;;;;;;;8.55;6.28;;;25.90;46.30;;;;;;5036717;28;20128;-69
2023/05/05 09:05:42;;;;;;;6.10;5.35;;;25.90;45.90;;;;;;5036670;28;20123;-69
2023/05/05 09:08:10;;;;;;;6.85;5.78;;;26.00;45.40;;;;;;5036219;28;20056;-69
2023/05/05 09:10:39;;;;;;;7.57;5.78;;;26.10;44.80;;;;;;5036255;28;20053;-69
2023/05/05 09:13:05;;;;;;;10.57;7.43;;;26.10;44.90;;;;;;5036535;28;20086;-69
2023/05/05 09:15:32;;;;;;;9.40;6.50;;;26.10;44.00;;;;;;5036531;28;20037;-69
2023/05/05 09:18:01;;;;;;;8.65;6.22;;;26.10;44.00;;;;;;5036497;28;20060;-69
2023/05/05 09:20:34;;;;;;;9.13;6.63;;;26.00;44.30;;;;;;5036759;28;20061;-69
2023/05/05 09:23:19;;;;;;;10.57;7.03;;;26.00;44.80;;;;;;5036338;28;20053;-69
2023/05/05 09:25:47;;;;;;;8.65;6.82;;;25.90;44.90;;;;;;5036530;28;20099;-68
2023/05/05 09:28:15;;;;;;;8.85;7.30;;;25.90;44.80;;;;;;5036237;28;20083;-68
2023/05/05 09:30:43;;;;;;;7.57;6.63;;;25.80;44.90;;;;;;5054067;28;20044;-68
2023/05/05 09:33:09;;;;;;;7.93;6.03;;;25.80;44.80;;;;;;5036167;28;20041;-69
2023/05/05 09:35:52;;;;;;;7.72;5.93;;;25.70;44.50;;;;;;5053971;28;20040;-69
2023/05/05 09:38:20;;;;;;;6.55;5.78;;;25.50;44.80;;;;;;5036081;28;20112;-69
2023/05/05 09:40:48;;;;;;;7.32;5.22;;;25.50;44.70;;;;;;5019492;28;20128;-69
2023/05/05 09:43:15;;;;;;;8.43;6.97;;;25.40;44.70;;;;;;5036007;28;20057;-69
2023/05/05 09:45:42;;;;;;;7.45;6.22;;;25.30;45.60;;;;;;5036261;28;20444;-69
2023/05/05 09:48:25;;;;;;;7.78;6.78;;;25.30;45.80;;;;;;5019103;28;20056;-68
2023/05/05 09:50:52;;;;;;;9.27;6.43;;;25.20;46.00;;;;;;5035757;28;20076;-68
2023/05/05 09:53:18;;;;;;;9.50;7.20;;;25.10;46.40;;;;;;5035824;28;20052;-68
2023/05/05 09:55:57;;;;;;;9.15;6.10;;;25.10;46.50;;;;;;5002923;28;20033;-68
2023/05/05 09:58:28;;;;;;;11.90;7.93;;;25.10;46.60;;;;;;5035433;28;20049;-68
2023/05/05 10:00:58;;;;;;;8.85;6.60;;;25.00;46.60;;;;;;5035819;28;20460;-69
2023/05/05 10:03:25;;;;;;;9.57;7.75;;;24.90;47.10;;;;;;5035818;28;20049;-69
2023/05/05 10:05:55;;;;;;;10.70;6.80;;;24.90;47.80;;;;;;5035635;28;20048;-69
2023/05/05 10:08:26;;;;;;;11.38;8.25;;;24.90;47.60;;;;;;5053453;28;20033;-69
2023/05/05 10:11:05;;;;;;;9.75;7.35;;;24.80;47.80;;;;;;5032062;28;20068;-69
2023/05/05 10:13:40;;;;;;;8.35;5.82;;;24.80;48.60;;;;;;5032167;28;20132;-69
2023/05/05 10:16:08;;;;;;;7.25;5.10;;;24.80;48.40;;;;;;5032099;28;20042;-68
2023/05/05 10:18:34;;;;;;;9.02;6.50;;;24.70;47.80;;;;;;5031799;28;20052;-69
2023/05/05 10:21:02;;;;;;;6.75;5.03;;;24.60;48.50;;;;;;5031741;28;20052;-69
2023/05/05 10:23:51;;;;;;;7.03;4.93;;;24.60;48.00;;;;;;5031974;28;20054;-69
2023/05/05 10:26:20;;;;;;;7.40;4.50;;;24.60;47.70;;;;;;5015668;28;20045;-69
2023/05/05 10:28:54;;;;;;;7.13;4.00;;;24.60;47.90;;;;;;5031887;28;20033;-68
2023/05/05 10:31:42;;;;;;;7.15;4.18;;;24.60;47.50;;;;;;5032229;28;20041;-69
2023/05/05 10:34:37;;;;;;;7.30;4.15;;;24.60;47.40;;;;;;5032183;28;20045;-69
2023/05/05 10:37:05;;;;;;;4.80;3.08;;;24.60;47.30;;;;;;5031828;28;20132;-69
2023/05/05 10:39:31;;;;;;;3.70;2.20;;;24.60;47.60;;;;;;5032097;28;20481;-68
2023/05/05 10:42:02;;;;;;;6.25;2.50;;;24.50;47.10;;;;;;5031808;28;20124;-69
2023/05/05 10:44:32;;;;;;;5.15;2.45;;;24.50;47.10;;;;;;5031673;28;20328;-68
2023/05/05 10:46:58;;;;;;;5.57;2.72;;;24.50;46.70;;;;;;5032935;28;20053;-69
2023/05/05 10:49:41;;;;;;;5.72;3.53;;;24.50;46.80;;;;;;5031671;28;20120;-69
2023/05/05 10:52:52;;;;;;;6.00;3.42;;;24.50;47.00;;;;;;5031746;28;20041;-70
2023/05/05 10:55:28;;;;;;;5.75;3.47;;;24.50;46.80;;;;;;5031617;28;20041;-70
2023/05/05 10:57:53;;;;;;;5.63;3.38;;;24.50;47.00;;;;;;5015499;28;20138;-69
2023/05/05 11:00:38;;;;;;;5.45;2.88;;;24.50;47.40;;;;;;5031513;28;20124;-70
2023/05/05 11:03:15;;;;;;;6.78;3.90;;;24.50;47.00;;;;;;5031672;28;20428;-70
2023/05/05 11:06:03;;;;;;;5.82;3.78;;;24.50;46.30;;;;;;5031551;28;20034;-69
2023/05/05 11:08:40;;;;;;;5.40;3.65;;;24.60;46.50;;;;;;5031448;28;20050;-69
2023/05/05 11:11:07;;;;;;;5.47;4.05;;;24.50;46.40;;;;;;5015152;28;20505;-69
2023/05/05 11:13:33;;;;;;;6.88;3.47;;;24.50;46.10;;;;;;5031388;28;20041;-69
2023/05/05 11:16:00;;;;;;;7.43;4.35;;;24.50;46.20;;;;;;5015205;28;20059;-70
2023/05/05 11:18:38;;;;;;;9.13;4.85;;;24.50;46.70;;;;;;5032626;28;20124;-69
2023/05/05 11:21:15;;;;;;;7.88;4.13;;;24.50;46.70;;;;;;5031328;28;20489;-69
2023/05/05 11:23:42;;;;;;;6.25;4.05;;;24.50;46.80;;;;;;5031431;28;20049;-69
2023/05/05 11:26:10;;;;;;;8.23;5.40;;;24.50;47.00;;;;;;5031464;28;20056;-69
2023/05/05 11:28:56;;;;;;;7.65;4.88;;;24.50;47.20;;;;;;5031258;28;20075;-69
2023/05/05 11:31:22;;;;;;;7.80;5.68;;;24.50;47.60;;;;;;5033432;28;20076;-69
2023/05/05 11:33:48;;;;;;;7.35;4.72;;;24.40;47.70;;;;;;5035429;28;20147;-69
2023/05/05 11:36:15;;;;;;;7.05;4.78;;;24.40;47.60;;;;;;5035355;28;20560;-69
2023/05/05 11:38:56;;;;;;;7.35;4.82;;;24.40;47.90;;;;;;5034952;28;20041;-70
2023/05/05 11:41:31;;;;;;;8.73;5.72;;;24.30;47.90;;;;;;5034989;28;20497;-69
2023/05/05 11:44:28;;;;;;;8.05;5.07;;;24.30;47.90;;;;;;5034843;28;20064;-69
2023/05/05 11:46:53;;;;;;;8.27;5.65;;;24.30;48.20;;;;;;5035026;28;20042;-74
2023/05/05 11:49:33;;;;;;;10.82;6.93;;;24.20;48.40;;;;;;5035015;28;20128;-75
2023/05/05 11:52:11;;;;;;;8.65;6.55;;;24.10;48.60;;;;;;5035114;28;20392;-75
2023/05/05 11:54:47;;;;;;;9.20;6.50;;;24.00;48.60;;;;;;5034755;28;20120;-75
2023/05/05 11:57:33;;;;;;;10.13;6.32;;;23.90;48.80;;;;;;5018693;28;20048;-75
2023/05/05 12:00:07;;;;;;;9.32;5.32;;;23.80;49.10;;;;;;5034740;28;20099;-75
2023/05/05 12:02:33;;;;;;;8.48;5.38;;;23.70;48.90;;;;;;5018612;28;20045;-75
2023/05/05 12:04:59;;;;;;;8.80;5.60;;;23.50;48.80;;;;;;5034682;28;20053;-75
2023/05/05 12:07:28;;;;;;;8.45;5.80;;;23.40;49.20;;;;;;5036057;28;20037;-75
2023/05/05 12:09:54;;;;;;;10.32;6.90;;;23.20;49.60;;;;;;5018033;28;20481;-75
2023/05/05 12:12:20;;;;;;;9.88;6.93;;;23.10;50.40;;;;;;5034933;28;20045;-75
2023/05/05 12:14:50;;;;;;;6.88;5.35;;;22.90;51.40;;;;;;5034979;28;20072;-75
2023/05/05 12:17:20;;;;;;;6.60;4.38;;;22.80;52.10;;;;;;5034865;28;20496;-75
2023/05/05 12:19:51;;;;;;;6.28;3.65;;;22.60;52.40;;;;;;5018143;28;20420;-74
2023/05/05 12:22:24;;;;;;;5.93;4.25;;;22.50;52.60;;;;;;5035751;28;20033;-75
2023/05/05 12:24:58;;;;;;;5.32;3.58;;;22.40;53.10;;;;;;5017748;28;20056;-75
2023/05/05 12:27:25;;;;;;;8.85;3.67;;;22.20;53.60;;;;;;5034358;28;20077;-74
2023/05/05 12:29:53;;;;;;;5.55;2.70;;;22.10;54.20;;;;;;5034090;28;20044;-68
2023/05/05 12:32:28;;;;;;;4.25;2.00;;;21.90;54.20;;;;;;5035213;28;20052;-68
2023/05/05 12:34:56;;;;;;;3.80;1.40;;;21.80;54.20;;;;;;5033846;28;20532;-67
2023/05/05 12:37:24;;;;;;;4.85;1.88;;;21.70;54.40;;;;;;5033855;28;20439;-68
2023/05/05 12:39:50;;;;;;;2.83;1.52;;;21.50;54.60;;;;;;5033847;28;20049;-68
2023/05/05 12:42:16;;;;;;;3.85;1.58;;;21.30;55.00;;;;;;5033047;28;20073;-68
2023/05/05 12:44:43;;;;;;;4.60;1.25;;;21.20;55.30;;;;;;5033794;28;20103;-68
2023/05/05 12:47:11;;;;;;;3.08;2.00;;;21.10;55.70;;;;;;5033713;28;20041;-68
2023/05/05 12:49:50;;;;;;;5.28;2.58;;;21.00;56.40;;;;;;5033739;28;20470;-68
2023/05/05 12:52:16;;;;;;;4.10;2.13;;;20.90;56.60;;;;;;5033965;28;20455;-69